sensor_id;sensor_type;location;lat;lon;timestamp;P1;durP1;ratioP1;P2;durP2;ratioP2
27265;SDS011;14766;51.380;13.762;2023-05-19T00:02:14;4.55;;;1.95;;
27265;SDS011;14766;51.380;13.762;2023-05-19T00:04:43;5.32;;;2.10;;
27265;SDS011;14766;51.380;13.762;2023-05-19T00:07:11;3.95;;;2.13;;
27265;SDS011;14766;51.380;13.762;2023-05-19T00:09:41;3.50;;;1.90;;
27265;SDS011;14766;51.380;13.762;2023-05-19T00:12:08;2.33;;;1.90;;
27265;SDS011;14766;51.380;13.762;2023-05-19T00:14:36;2.63;;;1.70;;
27265;SDS011;14766;51.380;13.762;2023-05-19T00:17:03;2.72;;;1.83;;
27265;SDS011;14766;51.380;13.762;2023-05-19T00:19:30;3.30;;;2.03;;
27265;SDS011;14766;51.380;13.762;2023-05-19T00:21:58;4.10;;;1.75;;
27265;SDS011;14766;51.380;13.762;2023-05-19T00:24:25;3.40;;;1.90;;
27265;SDS011;14766;51.380;13.762;2023-05-19T00:26:53;3.30;;;1.90;;
27265;SDS011;14766;51.380;13.762;2023-05-19T00:29:20;3.10;;;1.67;;
27265;SDS011;14766;51.380;13.762;2023-05-19T00:31:47;4.35;;;1.67;;
27265;SDS011;14766;51.380;13.762;2023-05-19T00:34:14;4.35;;;1.80;;
27265;SDS011;14766;51.380;13.762;2023-05-19T00:36:41;3.22;;;1.83;;
27265;SDS011;14766;51.380;13.762;2023-05-19T00:39:12;3.38;;;1.75;;
27265;SDS011;14766;51.380;13.762;2023-05-19T00:41:40;3.72;;;1.80;;
27265;SDS011;14766;51.380;13.762;2023-05-19T00:44:07;2.97;;;1.95;;
27265;SDS011;14766;51.380;13.762;2023-05-19T00:46:34;4.18;;;1.95;;
27265;SDS011;14766;51.380;13.762;2023-05-19T00:49:01;2.92;;;1.75;;
27265;SDS011;14766;51.380;13.762;2023-05-19T00:51:28;3.80;;;2.35;;
27265;SDS011;14766;51.380;13.762;2023-05-19T00:53:57;3.05;;;1.75;;
27265;SDS011;14766;51.380;13.762;2023-05-19T00:56:24;2.97;;;2.13;;
27265;SDS011;14766;51.380;13.762;2023-05-19T00:58:51;4.45;;;2.20;;
27265;SDS011;14766;51.380;13.762;2023-05-19T01:01:21;3.70;;;2.00;;
27265;SDS011;14766;51.380;13.762;2023-05-19T01:03:48;3.00;;;1.73;;
27265;SDS011;14766;51.380;13.762;2023-05-19T01:06:17;3.20;;;1.90;;
27265;SDS011;14766;51.380;13.762;2023-05-19T01:08:47;2.90;;;2.13;;
27265;SDS011;14766;51.380;13.762;2023-05-19T01:11:14;5.95;;;2.13;;
27265;SDS011;14766;51.380;13.762;2023-05-19T01:13:43;6.68;;;2.42;;
27265;SDS011;14766;51.380;13.762;2023-05-19T01:18:46;5.28;;;2.10;;
27265;SDS011;14766;51.380;13.762;2023-05-19T01:23:55;4.95;;;2.00;;
27265;SDS011;14766;51.380;13.762;2023-05-19T01:29:27;5.28;;;1.98;;
27265;SDS011;14766;51.380;13.762;2023-05-19T01:31:58;3.57;;;2.03;;
27265;SDS011;14766;51.380;13.762;2023-05-19T01:34:27;4.40;;;2.20;;
27265;SDS011;14766;51.380;13.762;2023-05-19T01:36:56;3.65;;;2.13;;
27265;SDS011;14766;51.380;13.762;2023-05-19T01:39:26;2.90;;;1.90;;
27265;SDS011;14766;51.380;13.762;2023-05-19T01:41:56;3.03;;;1.90;;
27265;SDS011;14766;51.380;13.762;2023-05-19T01:44:26;4.18;;;2.00;;
27265;SDS011;14766;51.380;13.762;2023-05-19T01:46:54;3.15;;;1.98;;
27265;SDS011;14766;51.380;13.762;2023-05-19T01:49:22;2.65;;;2.00;;
27265;SDS011;14766;51.380;13.762;2023-05-19T01:51:49;4.32;;;1.80;;
27265;SDS011;14766;51.380;13.762;2023-05-19T01:54:17;4.57;;;2.10;;
27265;SDS011;14766;51.380;13.762;2023-05-19T01:56:50;2.72;;;1.60;;
27265;SDS011;14766;51.380;13.762;2023-05-19T02:02:28;4.35;;;2.00;;
27265;SDS011;14766;51.380;13.762;2023-05-19T02:06:07;3.50;;;2.00;;
27265;SDS011;14766;51.380;13.762;2023-05-19T02:09:02;3.10;;;2.13;;
27265;SDS011;14766;51.380;13.762;2023-05-19T02:11:22;2.72;;;1.88;;
27265;SDS011;14766;51.380;13.762;2023-05-19T02:13:59;3.30;;;2.03;;
27265;SDS011;14766;51.380;13.762;2023-05-19T02:16:28;3.35;;;2.10;;
27265;SDS011;14766;51.380;13.762;2023-05-19T02:18:56;2.53;;;1.90;;
27265;SDS011;14766;51.380;13.762;2023-05-19T02:21:25;3.38;;;2.30;;
27265;SDS011;14766;51.380;13.762;2023-05-19T02:23:53;3.15;;;1.95;;
27265;SDS011;14766;51.380;13.762;2023-05-19T02:26:20;3.45;;;2.22;;
27265;SDS011;14766;51.380;13.762;2023-05-19T02:28:48;3.53;;;2.30;;
27265;SDS011;14766;51.380;13.762;2023-05-19T02:31:16;4.15;;;1.90;;
27265;SDS011;14766;51.380;13.762;2023-05-19T02:33:43;3.38;;;2.03;;
27265;SDS011;14766;51.380;13.762;2023-05-19T02:36:10;4.10;;;2.78;;
27265;SDS011;14766;51.380;13.762;2023-05-19T02:38:39;4.00;;;2.38;;
27265;SDS011;14766;51.380;13.762;2023-05-19T02:41:07;5.45;;;2.40;;
27265;SDS011;14766;51.380;13.762;2023-05-19T02:43:34;4.25;;;2.25;;
27265;SDS011;14766;51.380;13.762;2023-05-19T02:46:02;3.58;;;2.40;;
27265;SDS011;14766;51.380;13.762;2023-05-19T02:48:29;5.10;;;2.10;;
27265;SDS011;14766;51.380;13.762;2023-05-19T02:50:56;3.63;;;2.47;;
27265;SDS011;14766;51.380;13.762;2023-05-19T02:53:23;2.63;;;1.90;;
27265;SDS011;14766;51.380;13.762;2023-05-19T02:55:52;4.38;;;2.60;;
27265;SDS011;14766;51.380;13.762;2023-05-19T02:58:19;4.03;;;2.40;;
27265;SDS011;14766;51.380;13.762;2023-05-19T03:00:46;4.72;;;2.05;;
27265;SDS011;14766;51.380;13.762;2023-05-19T03:03:13;2.85;;;2.03;;
27265;SDS011;14766;51.380;13.762;2023-05-19T03:05:41;3.75;;;2.30;;
27265;SDS011;14766;51.380;13.762;2023-05-19T03:08:08;3.50;;;2.05;;
27265;SDS011;14766;51.380;13.762;2023-05-19T03:10:35;3.40;;;2.25;;
27265;SDS011;14766;51.380;13.762;2023-05-19T03:13:03;4.93;;;2.25;;
27265;SDS011;14766;51.380;13.762;2023-05-19T03:15:30;4.15;;;1.85;;
27265;SDS011;14766;51.380;13.762;2023-05-19T03:17:57;5.20;;;2.50;;
27265;SDS011;14766;51.380;13.762;2023-05-19T03:20:25;3.53;;;2.00;;
27265;SDS011;14766;51.380;13.762;2023-05-19T03:22:53;3.80;;;2.00;;
27265;SDS011;14766;51.380;13.762;2023-05-19T03:25:20;3.35;;;2.17;;
27265;SDS011;14766;51.380;13.762;2023-05-19T03:27:47;3.67;;;2.20;;
27265;SDS011;14766;51.380;13.762;2023-05-19T03:30:14;2.90;;;2.05;;
27265;SDS011;14766;51.380;13.762;2023-05-19T03:32:56;2.97;;;2.15;;
27265;SDS011;14766;51.380;13.762;2023-05-19T03:35:23;3.97;;;2.28;;
27265;SDS011;14766;51.380;13.762;2023-05-19T03:37:51;2.75;;;2.15;;
27265;SDS011;14766;51.380;13.762;2023-05-19T03:40:19;3.50;;;2.40;;
27265;SDS011;14766;51.380;13.762;2023-05-19T03:42:47;3.15;;;2.35;;
27265;SDS011;14766;51.380;13.762;2023-05-19T03:45:15;5.72;;;2.55;;
27265;SDS011;14766;51.380;13.762;2023-05-19T03:47:47;3.33;;;2.33;;
27265;SDS011;14766;51.380;13.762;2023-05-19T03:50:34;4.13;;;2.45;;
27265;SDS011;14766;51.380;13.762;2023-05-19T03:53:16;3.45;;;2.42;;
27265;SDS011;14766;51.380;13.762;2023-05-19T03:55:44;5.78;;;2.70;;
27265;SDS011;14766;51.380;13.762;2023-05-19T03:58:11;4.10;;;2.42;;
27265;SDS011;14766;51.380;13.762;2023-05-19T04:00:40;5.57;;;2.78;;
27265;SDS011;14766;51.380;13.762;2023-05-19T04:03:07;6.15;;;2.83;;
27265;SDS011;14766;51.380;13.762;2023-05-19T04:05:34;5.43;;;2.60;;
27265;SDS011;14766;51.380;13.762;2023-05-19T04:08:02;3.40;;;2.65;;
27265;SDS011;14766;51.380;13.762;2023-05-19T04:10:29;3.47;;;2.60;;
27265;SDS011;14766;51.380;13.762;2023-05-19T04:12:56;3.40;;;2.20;;
27265;SDS011;14766;51.380;13.762;2023-05-19T04:15:24;6.57;;;2.83;;
27265;SDS011;14766;51.380;13.762;2023-05-19T04:17:51;5.13;;;2.20;;
27265;SDS011;14766;51.380;13.762;2023-05-19T04:20:19;3.20;;;2.22;;
27265;SDS011;14766;51.380;13.762;2023-05-19T04:22:46;3.28;;;2.10;;
27265;SDS011;14766;51.380;13.762;2023-05-19T04:25:14;5.90;;;2.78;;
27265;SDS011;14766;51.380;13.762;2023-05-19T04:27:41;4.38;;;2.92;;
27265;SDS011;14766;51.380;13.762;2023-05-19T04:30:09;4.07;;;2.65;;
27265;SDS011;14766;51.380;13.762;2023-05-19T04:32:37;4.57;;;2.50;;
27265;SDS011;14766;51.380;13.762;2023-05-19T04:35:05;4.13;;;2.50;;
27265;SDS011;14766;51.380;13.762;2023-05-19T04:37:34;3.55;;;2.58;;
27265;SDS011;14766;51.380;13.762;2023-05-19T04:40:04;3.22;;;2.30;;
27265;SDS011;14766;51.380;13.762;2023-05-19T04:42:37;4.28;;;2.67;;
27265;SDS011;14766;51.380;13.762;2023-05-19T04:45:08;3.15;;;2.50;;
27265;SDS011;14766;51.380;13.762;2023-05-19T04:47:40;5.65;;;3.00;;
27265;SDS011;14766;51.380;13.762;2023-05-19T04:50:08;5.47;;;2.70;;
27265;SDS011;14766;51.380;13.762;2023-05-19T04:52:36;3.38;;;2.30;;
27265;SDS011;14766;51.380;13.762;2023-05-19T04:55:05;4.18;;;2.88;;
27265;SDS011;14766;51.380;13.762;2023-05-19T04:57:32;3.80;;;2.55;;
27265;SDS011;14766;51.380;13.762;2023-05-19T04:59:59;4.00;;;2.60;;
27265;SDS011;14766;51.380;13.762;2023-05-19T05:02:35;3.90;;;2.97;;
27265;SDS011;14766;51.380;13.762;2023-05-19T05:05:03;4.18;;;2.70;;
27265;SDS011;14766;51.380;13.762;2023-05-19T05:07:31;3.85;;;2.60;;
27265;SDS011;14766;51.380;13.762;2023-05-19T05:09:59;4.50;;;2.40;;
27265;SDS011;14766;51.380;13.762;2023-05-19T05:12:27;4.35;;;2.50;;
27265;SDS011;14766;51.380;13.762;2023-05-19T05:14:54;3.88;;;2.83;;
27265;SDS011;14766;51.380;13.762;2023-05-19T05:17:21;4.38;;;2.88;;
27265;SDS011;14766;51.380;13.762;2023-05-19T05:19:51;3.28;;;2.50;;
27265;SDS011;14766;51.380;13.762;2023-05-19T05:22:19;4.47;;;2.70;;
27265;SDS011;14766;51.380;13.762;2023-05-19T05:24:47;3.47;;;2.50;;
27265;SDS011;14766;51.380;13.762;2023-05-19T05:27:15;3.65;;;2.42;;
27265;SDS011;14766;51.380;13.762;2023-05-19T05:29:43;4.70;;;2.45;;
27265;SDS011;14766;51.380;13.762;2023-05-19T05:32:11;4.40;;;2.50;;
27265;SDS011;14766;51.380;13.762;2023-05-19T05:34:38;3.53;;;2.67;;
27265;SDS011;14766;51.380;13.762;2023-05-19T05:37:07;3.42;;;2.10;;
27265;SDS011;14766;51.380;13.762;2023-05-19T05:39:35;4.00;;;2.58;;
27265;SDS011;14766;51.380;13.762;2023-05-19T05:42:03;4.25;;;2.40;;
27265;SDS011;14766;51.380;13.762;2023-05-19T05:44:30;5.00;;;2.88;;
27265;SDS011;14766;51.380;13.762;2023-05-19T05:47:02;4.88;;;3.08;;
27265;SDS011;14766;51.380;13.762;2023-05-19T05:49:30;4.30;;;2.72;;
27265;SDS011;14766;51.380;13.762;2023-05-19T05:51:58;3.83;;;2.67;;
27265;SDS011;14766;51.380;13.762;2023-05-19T05:54:38;5.65;;;2.80;;
27265;SDS011;14766;51.380;13.762;2023-05-19T05:57:06;2.80;;;2.40;;
27265;SDS011;14766;51.380;13.762;2023-05-19T05:59:34;3.65;;;2.45;;
27265;SDS011;14766;51.380;13.762;2023-05-19T06:02:01;6.10;;;2.90;;
27265;SDS011;14766;51.380;13.762;2023-05-19T06:04:29;3.60;;;2.45;;
27265;SDS011;14766;51.380;13.762;2023-05-19T06:06:56;4.90;;;2.55;;
27265;SDS011;14766;51.380;13.762;2023-05-19T06:09:31;4.05;;;2.60;;
27265;SDS011;14766;51.380;13.762;2023-05-19T06:11:59;4.70;;;2.88;;
27265;SDS011;14766;51.380;13.762;2023-05-19T06:14:30;5.22;;;3.08;;
27265;SDS011;14766;51.380;13.762;2023-05-19T06:17:10;6.65;;;3.35;;
27265;SDS011;14766;51.380;13.762;2023-05-19T06:19:37;3.65;;;2.72;;
27265;SDS011;14766;51.380;13.762;2023-05-19T06:22:04;5.25;;;2.90;;
27265;SDS011;14766;51.380;13.762;2023-05-19T06:24:32;4.47;;;3.10;;
27265;SDS011;14766;51.380;13.762;2023-05-19T06:26:59;4.18;;;2.70;;
27265;SDS011;14766;51.380;13.762;2023-05-19T06:29:26;3.60;;;2.80;;
27265;SDS011;14766;51.380;13.762;2023-05-19T06:31:56;3.88;;;2.97;;
27265;SDS011;14766;51.380;13.762;2023-05-19T06:34:23;5.95;;;2.78;;
27265;SDS011;14766;51.380;13.762;2023-05-19T06:36:53;4.75;;;2.75;;
27265;SDS011;14766;51.380;13.762;2023-05-19T06:39:20;5.85;;;3.03;;
27265;SDS011;14766;51.380;13.762;2023-05-19T06:41:48;3.63;;;2.58;;
27265;SDS011;14766;51.380;13.762;2023-05-19T06:44:35;5.72;;;3.03;;
27265;SDS011;14766;51.380;13.762;2023-05-19T06:47:09;5.40;;;3.17;;
27265;SDS011;14766;51.380;13.762;2023-05-19T06:49:37;5.13;;;2.92;;
27265;SDS011;14766;51.380;13.762;2023-05-19T06:52:06;4.30;;;2.45;;
27265;SDS011;14766;51.380;13.762;2023-05-19T06:54:33;5.18;;;2.95;;
27265;SDS011;14766;51.380;13.762;2023-05-19T06:57:01;5.30;;;2.90;;
27265;SDS011;14766;51.380;13.762;2023-05-19T06:59:29;5.53;;;2.90;;
27265;SDS011;14766;51.380;13.762;2023-05-19T07:01:57;5.43;;;3.03;;
27265;SDS011;14766;51.380;13.762;2023-05-19T07:04:26;5.00;;;3.03;;
27265;SDS011;14766;51.380;13.762;2023-05-19T07:06:54;5.63;;;3.15;;
27265;SDS011;14766;51.380;13.762;2023-05-19T07:09:22;4.32;;;2.90;;
27265;SDS011;14766;51.380;13.762;2023-05-19T07:11:50;3.25;;;2.63;;
27265;SDS011;14766;51.380;13.762;2023-05-19T07:14:17;4.00;;;2.63;;
27265;SDS011;14766;51.380;13.762;2023-05-19T07:16:44;5.10;;;2.65;;
27265;SDS011;14766;51.380;13.762;2023-05-19T07:19:12;4.35;;;2.60;;
27265;SDS011;14766;51.380;13.762;2023-05-19T07:21:39;5.57;;;2.63;;
27265;SDS011;14766;51.380;13.762;2023-05-19T07:24:07;5.53;;;2.90;;
27265;SDS011;14766;51.380;13.762;2023-05-19T07:26:35;4.72;;;2.53;;
27265;SDS011;14766;51.380;13.762;2023-05-19T07:29:02;7.53;;;3.33;;
27265;SDS011;14766;51.380;13.762;2023-05-19T07:31:29;4.55;;;2.78;;
27265;SDS011;14766;51.380;13.762;2023-05-19T07:33:57;4.43;;;2.67;;
27265;SDS011;14766;51.380;13.762;2023-05-19T07:36:26;4.47;;;2.65;;
27265;SDS011;14766;51.380;13.762;2023-05-19T07:38:53;5.45;;;2.90;;
27265;SDS011;14766;51.380;13.762;2023-05-19T07:41:20;5.30;;;2.55;;
27265;SDS011;14766;51.380;13.762;2023-05-19T07:43:48;4.32;;;2.28;;
27265;SDS011;14766;51.380;13.762;2023-05-19T07:46:15;4.75;;;2.20;;
27265;SDS011;14766;51.380;13.762;2023-05-19T07:48:43;4.75;;;2.40;;
27265;SDS011;14766;51.380;13.762;2023-05-19T07:51:11;7.13;;;2.83;;
27265;SDS011;14766;51.380;13.762;2023-05-19T07:53:38;5.13;;;2.80;;
27265;SDS011;14766;51.380;13.762;2023-05-19T07:56:06;3.80;;;2.10;;
27265;SDS011;14766;51.380;13.762;2023-05-19T07:58:33;5.95;;;2.30;;
27265;SDS011;14766;51.380;13.762;2023-05-19T08:01:00;2.45;;;2.10;;
27265;SDS011;14766;51.380;13.762;2023-05-19T08:03:28;5.38;;;2.60;;
27265;SDS011;14766;51.380;13.762;2023-05-19T08:05:56;4.97;;;2.40;;
27265;SDS011;14766;51.380;13.762;2023-05-19T08:08:24;5.25;;;2.20;;
27265;SDS011;14766;51.380;13.762;2023-05-19T08:10:53;3.75;;;1.88;;
27265;SDS011;14766;51.380;13.762;2023-05-19T08:13:20;3.63;;;2.10;;
27265;SDS011;14766;51.380;13.762;2023-05-19T08:15:48;2.72;;;1.70;;
27265;SDS011;14766;51.380;13.762;2023-05-19T08:18:16;4.88;;;2.33;;
27265;SDS011;14766;51.380;13.762;2023-05-19T08:20:44;8.23;;;1.83;;
27265;SDS011;14766;51.380;13.762;2023-05-19T08:23:11;3.25;;;1.60;;
27265;SDS011;14766;51.380;13.762;2023-05-19T08:25:39;2.88;;;1.95;;
27265;SDS011;14766;51.380;13.762;2023-05-19T08:28:07;3.33;;;1.75;;
27265;SDS011;14766;51.380;13.762;2023-05-19T08:30:34;4.03;;;1.73;;
27265;SDS011;14766;51.380;13.762;2023-05-19T08:33:02;2.20;;;1.70;;
27265;SDS011;14766;51.380;13.762;2023-05-19T08:35:31;4.35;;;1.92;;
27265;SDS011;14766;51.380;13.762;2023-05-19T08:37:58;3.58;;;1.67;;
27265;SDS011;14766;51.380;13.762;2023-05-19T08:40:26;4.07;;;2.00;;
27265;SDS011;14766;51.380;13.762;2023-05-19T08:42:57;4.20;;;1.67;;
27265;SDS011;14766;51.380;13.762;2023-05-19T08:45:24;4.22;;;1.85;;
27265;SDS011;14766;51.380;13.762;2023-05-19T08:47:52;1.92;;;1.50;;
27265;SDS011;14766;51.380;13.762;2023-05-19T08:50:23;3.53;;;1.50;;
27265;SDS011;14766;51.380;13.762;2023-05-19T08:53:11;7.05;;;1.80;;
27265;SDS011;14766;51.380;13.762;2023-05-19T08:56:33;7.20;;;2.10;;
27265;SDS011;14766;51.380;13.762;2023-05-19T08:58:54;4.55;;;2.05;;
27265;SDS011;14766;51.380;13.762;2023-05-19T09:01:25;2.05;;;1.30;;
27265;SDS011;14766;51.380;13.762;2023-05-19T09:03:55;3.35;;;1.40;;
27265;SDS011;14766;51.380;13.762;2023-05-19T09:06:23;2.70;;;1.50;;
27265;SDS011;14766;51.380;13.762;2023-05-19T09:08:51;2.55;;;1.50;;
27265;SDS011;14766;51.380;13.762;2023-05-19T09:11:18;3.13;;;1.45;;
27265;SDS011;14766;51.380;13.762;2023-05-19T09:13:48;1.73;;;1.40;;
27265;SDS011;14766;51.380;13.762;2023-05-19T09:16:16;3.13;;;1.70;;
27265;SDS011;14766;51.380;13.762;2023-05-19T09:18:54;7.47;;;1.80;;
27265;SDS011;14766;51.380;13.762;2023-05-19T09:21:31;2.58;;;1.70;;
27265;SDS011;14766;51.380;13.762;2023-05-19T09:24:06;2.53;;;1.50;;
27265;SDS011;14766;51.380;13.762;2023-05-19T09:26:39;3.38;;;1.65;;
27265;SDS011;14766;51.380;13.762;2023-05-19T09:29:12;2.25;;;1.50;;
27265;SDS011;14766;51.380;13.762;2023-05-19T09:34:19;2.40;;;1.50;;
27265;SDS011;14766;51.380;13.762;2023-05-19T09:36:48;3.35;;;1.50;;
27265;SDS011;14766;51.380;13.762;2023-05-19T09:39:15;4.65;;;1.52;;
27265;SDS011;14766;51.380;13.762;2023-05-19T09:41:43;2.47;;;2.10;;
27265;SDS011;14766;51.380;13.762;2023-05-19T09:44:24;2.55;;;1.92;;
27265;SDS011;14766;51.380;13.762;2023-05-19T09:46:56;3.28;;;2.10;;
27265;SDS011;14766;51.380;13.762;2023-05-19T09:49:27;3.25;;;1.75;;
27265;SDS011;14766;51.380;13.762;2023-05-19T09:51:56;4.57;;;2.03;;
27265;SDS011;14766;51.380;13.762;2023-05-19T09:54:25;3.55;;;2.17;;
27265;SDS011;14766;51.380;13.762;2023-05-19T09:56:57;2.53;;;1.60;;
27265;SDS011;14766;51.380;13.762;2023-05-19T09:59:29;2.63;;;2.00;;
27265;SDS011;14766;51.380;13.762;2023-05-19T10:01:59;1.92;;;1.40;;
27265;SDS011;14766;51.380;13.762;2023-05-19T10:04:28;2.25;;;1.67;;
27265;SDS011;14766;51.380;13.762;2023-05-19T10:06:58;4.38;;;2.00;;
27265;SDS011;14766;51.380;13.762;2023-05-19T10:09:26;3.35;;;1.60;;
27265;SDS011;14766;51.380;13.762;2023-05-19T10:11:55;2.88;;;2.00;;
27265;SDS011;14766;51.380;13.762;2023-05-19T10:14:23;2.58;;;1.65;;
27265;SDS011;14766;51.380;13.762;2023-05-19T10:16:55;2.47;;;1.60;;
27265;SDS011;14766;51.380;13.762;2023-05-19T10:19:24;2.50;;;1.40;;
27265;SDS011;14766;51.380;13.762;2023-05-19T10:21:53;3.17;;;1.70;;
27265;SDS011;14766;51.380;13.762;2023-05-19T10:24:22;3.40;;;1.70;;
27265;SDS011;14766;51.380;13.762;2023-05-19T10:26:54;3.75;;;1.67;;
27265;SDS011;14766;51.380;13.762;2023-05-19T10:31:56;3.38;;;2.28;;
27265;SDS011;14766;51.380;13.762;2023-05-19T10:40:11;6.00;;;2.00;;
27265;SDS011;14766;51.380;13.762;2023-05-19T10:45:52;2.90;;;1.80;;
27265;SDS011;14766;51.380;13.762;2023-05-19T10:48:20;2.22;;;1.60;;
27265;SDS011;14766;51.380;13.762;2023-05-19T10:50:51;3.33;;;1.70;;
27265;SDS011;14766;51.380;13.762;2023-05-19T10:53:25;1.98;;;1.55;;
27265;SDS011;14766;51.380;13.762;2023-05-19T10:56:00;4.78;;;1.83;;
27265;SDS011;14766;51.380;13.762;2023-05-19T11:01:12;2.63;;;1.88;;
27265;SDS011;14766;51.380;13.762;2023-05-19T11:03:52;5.05;;;1.80;;
27265;SDS011;14766;51.380;13.762;2023-05-19T11:06:26;3.40;;;1.63;;
27265;SDS011;14766;51.380;13.762;2023-05-19T11:08:58;3.60;;;1.63;;
27265;SDS011;14766;51.380;13.762;2023-05-19T11:11:51;3.67;;;1.77;;
27265;SDS011;14766;51.380;13.762;2023-05-19T11:14:25;2.38;;;1.50;;
27265;SDS011;14766;51.380;13.762;2023-05-19T11:16:56;1.80;;;1.58;;
27265;SDS011;14766;51.380;13.762;2023-05-19T11:19:25;2.38;;;1.73;;
27265;SDS011;14766;51.380;13.762;2023-05-19T11:21:54;2.70;;;1.58;;
27265;SDS011;14766;51.380;13.762;2023-05-19T11:29:47;2.85;;;1.77;;
27265;SDS011;14766;51.380;13.762;2023-05-19T11:32:15;4.35;;;1.95;;
27265;SDS011;14766;51.380;13.762;2023-05-19T11:34:43;3.38;;;1.80;;
27265;SDS011;14766;51.380;13.762;2023-05-19T11:37:11;2.75;;;1.70;;
27265;SDS011;14766;51.380;13.762;2023-05-19T11:39:38;2.20;;;1.55;;
27265;SDS011;14766;51.380;13.762;2023-05-19T11:42:09;3.58;;;2.25;;
27265;SDS011;14766;51.380;13.762;2023-05-19T11:44:37;3.05;;;1.50;;
27265;SDS011;14766;51.380;13.762;2023-05-19T11:47:06;2.70;;;1.58;;
27265;SDS011;14766;51.380;13.762;2023-05-19T11:49:34;2.53;;;1.70;;
27265;SDS011;14766;51.380;13.762;2023-05-19T11:52:01;2.13;;;1.70;;
27265;SDS011;14766;51.380;13.762;2023-05-19T11:54:30;2.47;;;1.60;;
27265;SDS011;14766;51.380;13.762;2023-05-19T11:56:59;2.13;;;1.45;;
27265;SDS011;14766;51.380;13.762;2023-05-19T11:59:30;1.88;;;1.48;;
27265;SDS011;14766;51.380;13.762;2023-05-19T12:02:03;2.47;;;1.58;;
27265;SDS011;14766;51.380;13.762;2023-05-19T12:04:44;2.40;;;1.35;;
27265;SDS011;14766;51.380;13.762;2023-05-19T12:07:14;2.10;;;1.60;;
27265;SDS011;14766;51.380;13.762;2023-05-19T12:09:45;2.95;;;1.50;;
27265;SDS011;14766;51.380;13.762;2023-05-19T12:12:20;1.95;;;1.40;;
27265;SDS011;14766;51.380;13.762;2023-05-19T12:14:49;1.63;;;1.30;;
27265;SDS011;14766;51.380;13.762;2023-05-19T12:17:17;2.05;;;1.65;;
27265;SDS011;14766;51.380;13.762;2023-05-19T12:19:47;2.88;;;1.70;;
27265;SDS011;14766;51.380;13.762;2023-05-19T12:22:16;2.90;;;1.92;;
27265;SDS011;14766;51.380;13.762;2023-05-19T12:24:43;3.38;;;1.65;;
27265;SDS011;14766;51.380;13.762;2023-05-19T12:27:19;2.83;;;1.73;;
27265;SDS011;14766;51.380;13.762;2023-05-19T12:29:55;2.88;;;1.55;;
27265;SDS011;14766;51.380;13.762;2023-05-19T12:32:25;2.25;;;1.40;;
27265;SDS011;14766;51.380;13.762;2023-05-19T12:34:56;2.33;;;1.60;;
27265;SDS011;14766;51.380;13.762;2023-05-19T12:37:27;3.45;;;2.00;;
27265;SDS011;14766;51.380;13.762;2023-05-19T12:39:56;5.60;;;2.03;;
27265;SDS011;14766;51.380;13.762;2023-05-19T12:42:25;3.97;;;2.05;;
27265;SDS011;14766;51.380;13.762;2023-05-19T12:45:01;3.58;;;1.90;;
27265;SDS011;14766;51.380;13.762;2023-05-19T12:47:33;3.55;;;1.60;;
27265;SDS011;14766;51.380;13.762;2023-05-19T12:50:02;2.90;;;2.10;;
27265;SDS011;14766;51.380;13.762;2023-05-19T12:52:31;3.17;;;2.00;;
27265;SDS011;14766;51.380;13.762;2023-05-19T12:55:04;2.50;;;1.42;;
27265;SDS011;14766;51.380;13.762;2023-05-19T12:57:33;2.20;;;1.80;;
27265;SDS011;14766;51.380;13.762;2023-05-19T13:02:33;2.38;;;1.65;;
27265;SDS011;14766;51.380;13.762;2023-05-19T13:05:02;1.42;;;1.33;;
27265;SDS011;14766;51.380;13.762;2023-05-19T13:07:30;2.03;;;1.50;;
27265;SDS011;14766;51.380;13.762;2023-05-19T13:09:58;3.08;;;2.10;;
27265;SDS011;14766;51.380;13.762;2023-05-19T13:12:25;3.53;;;1.70;;
27265;SDS011;14766;51.380;13.762;2023-05-19T13:14:52;2.83;;;1.67;;
27265;SDS011;14766;51.380;13.762;2023-05-19T13:17:21;2.75;;;1.40;;
27265;SDS011;14766;51.380;13.762;2023-05-19T13:19:49;3.50;;;1.48;;
27265;SDS011;14766;51.380;13.762;2023-05-19T13:22:17;3.60;;;1.65;;
27265;SDS011;14766;51.380;13.762;2023-05-19T13:24:44;2.45;;;1.52;;
27265;SDS011;14766;51.380;13.762;2023-05-19T13:27:11;1.75;;;1.02;;
27265;SDS011;14766;51.380;13.762;2023-05-19T13:29:38;2.35;;;1.60;;
27265;SDS011;14766;51.380;13.762;2023-05-19T13:32:05;1.52;;;1.20;;
27265;SDS011;14766;51.380;13.762;2023-05-19T13:34:32;2.60;;;1.40;;
27265;SDS011;14766;51.380;13.762;2023-05-19T13:36:59;1.40;;;1.30;;
27265;SDS011;14766;51.380;13.762;2023-05-19T13:39:27;4.13;;;2.70;;
27265;SDS011;14766;51.380;13.762;2023-05-19T13:41:57;2.75;;;1.67;;
27265;SDS011;14766;51.380;13.762;2023-05-19T13:44:27;2.20;;;1.52;;
27265;SDS011;14766;51.380;13.762;2023-05-19T13:46:54;1.60;;;1.40;;
27265;SDS011;14766;51.380;13.762;2023-05-19T13:49:21;1.67;;;1.30;;
27265;SDS011;14766;51.380;13.762;2023-05-19T13:51:49;2.35;;;1.45;;
27265;SDS011;14766;51.380;13.762;2023-05-19T13:54:16;2.65;;;1.60;;
27265;SDS011;14766;51.380;13.762;2023-05-19T13:56:43;3.03;;;1.50;;
27265;SDS011;14766;51.380;13.762;2023-05-19T13:59:12;2.05;;;1.40;;
27265;SDS011;14766;51.380;13.762;2023-05-19T14:01:39;2.58;;;1.50;;
27265;SDS011;14766;51.380;13.762;2023-05-19T14:04:07;2.35;;;1.80;;
27265;SDS011;14766;51.380;13.762;2023-05-19T14:06:34;2.17;;;1.55;;
27265;SDS011;14766;51.380;13.762;2023-05-19T14:09:02;2.55;;;1.63;;
27265;SDS011;14766;51.380;13.762;2023-05-19T14:11:31;1.77;;;1.40;;
27265;SDS011;14766;51.380;13.762;2023-05-19T14:13:58;2.60;;;1.60;;
27265;SDS011;14766;51.380;13.762;2023-05-19T14:16:26;2.00;;;1.50;;
27265;SDS011;14766;51.380;13.762;2023-05-19T14:18:55;1.67;;;1.30;;
27265;SDS011;14766;51.380;13.762;2023-05-19T14:21:22;3.95;;;1.55;;
27265;SDS011;14766;51.380;13.762;2023-05-19T14:23:49;2.25;;;1.50;;
27265;SDS011;14766;51.380;13.762;2023-05-19T14:26:17;2.90;;;1.77;;
27265;SDS011;14766;51.380;13.762;2023-05-19T14:28:45;1.65;;;1.40;;
27265;SDS011;14766;51.380;13.762;2023-05-19T14:31:12;1.92;;;1.70;;
27265;SDS011;14766;51.380;13.762;2023-05-19T14:33:40;2.40;;;1.80;;
27265;SDS011;14766;51.380;13.762;2023-05-19T14:36:08;2.25;;;1.85;;
27265;SDS011;14766;51.380;13.762;2023-05-19T14:38:35;2.00;;;1.63;;
27265;SDS011;14766;51.380;13.762;2023-05-19T14:41:02;2.45;;;2.03;;
27265;SDS011;14766;51.380;13.762;2023-05-19T14:43:30;3.10;;;1.67;;
27265;SDS011;14766;51.380;13.762;2023-05-19T14:45:57;2.42;;;1.80;;
27265;SDS011;14766;51.380;13.762;2023-05-19T14:48:24;2.20;;;1.85;;
27265;SDS011;14766;51.380;13.762;2023-05-19T14:50:51;2.88;;;1.80;;
27265;SDS011;14766;51.380;13.762;2023-05-19T14:53:20;5.65;;;4.05;;
27265;SDS011;14766;51.380;13.762;2023-05-19T14:55:48;3.55;;;2.00;;
27265;SDS011;14766;51.380;13.762;2023-05-19T14:58:16;1.83;;;1.50;;
27265;SDS011;14766;51.380;13.762;2023-05-19T15:00:56;1.75;;;1.33;;
27265;SDS011;14766;51.380;13.762;2023-05-19T15:03:25;3.33;;;1.95;;
27265;SDS011;14766;51.380;13.762;2023-05-19T15:05:52;6.57;;;3.22;;
27265;SDS011;14766;51.380;13.762;2023-05-19T15:08:19;3.80;;;2.42;;
27265;SDS011;14766;51.380;13.762;2023-05-19T15:10:47;4.00;;;2.40;;
27265;SDS011;14766;51.380;13.762;2023-05-19T15:13:15;5.85;;;3.00;;
27265;SDS011;14766;51.380;13.762;2023-05-19T15:15:44;3.08;;;2.10;;
27265;SDS011;14766;51.380;13.762;2023-05-19T15:18:11;2.70;;;1.95;;
27265;SDS011;14766;51.380;13.762;2023-05-19T15:20:46;4.57;;;2.50;;
27265;SDS011;14766;51.380;13.762;2023-05-19T15:23:14;8.65;;;2.13;;